createdAt,value
2019-03-29T00:01:12.207Z,20.12
2019-03-29T00:03:40.840Z,16.00
2019-03-29T00:06:09.406Z,15.48
2019-03-29T00:08:38.690Z,15.15
2019-03-29T00:11:07.400Z,15.53
2019-03-29T00:13:35.881Z,12.37
2019-03-29T00:16:04.489Z,17.67
2019-03-29T00:18:32.943Z,12.60
2019-03-29T00:21:01.423Z,13.98
2019-03-29T00:23:29.960Z,15.20
2019-03-29T00:25:59.108Z,10.80
2019-03-29T00:28:27.918Z,13.85
2019-03-29T00:30:56.452Z,14.23
2019-03-29T00:33:24.904Z,12.35
2019-03-29T00:35:53.751Z,11.68
2019-03-29T00:38:22.913Z,13.70
2019-03-29T00:40:51.674Z,13.15
2019-03-29T00:43:20.247Z,12.70
2019-03-29T00:45:48.717Z,13.08
2019-03-29T00:48:17.282Z,12.03
2019-03-29T00:50:45.767Z,13.03
2019-03-29T00:53:14.235Z,15.80
2019-03-29T00:55:42.737Z,15.35
2019-03-29T00:58:11.358Z,17.05
2019-03-29T01:00:39.982Z,14.95
2019-03-29T01:03:08.560Z,16.25
2019-03-29T01:05:37.090Z,18.62
2019-03-29T01:08:08.124Z,17.55
2019-03-29T01:10:35.963Z,14.63
2019-03-29T01:13:04.436Z,17.12
2019-03-29T01:15:32.955Z,23.32
2019-03-29T01:18:01.471Z,14.23
2019-03-29T01:20:29.929Z,19.55
2019-03-29T01:22:58.470Z,16.17
2019-03-29T01:25:26.916Z,16.93
2019-03-29T01:27:55.472Z,14.38
2019-03-29T01:30:23.939Z,16.55
2019-03-29T01:32:52.439Z,15.28
2019-03-29T01:35:20.947Z,15.65
2019-03-29T01:37:49.489Z,15.03
2019-03-29T01:40:18.014Z,17.92
2019-03-29T01:42:46.555Z,17.73
2019-03-29T01:45:15.263Z,17.62
2019-03-29T01:47:43.765Z,18.52
2019-03-29T01:50:12.548Z,15.35
2019-03-29T01:52:41.011Z,15.83
2019-03-29T01:55:09.819Z,17.87
2019-03-29T01:57:38.389Z,15.00
2019-03-29T02:00:09.042Z,16.35
2019-03-29T02:02:37.914Z,16.82
2019-03-29T02:05:08.012Z,18.67
2019-03-29T02:07:38.022Z,16.30
2019-03-29T02:10:09.465Z,13.80
2019-03-29T02:12:37.987Z,16.90
2019-03-29T02:15:08.113Z,16.48
2019-03-29T02:17:37.113Z,17.12
2019-03-29T02:20:07.439Z,17.02
2019-03-29T02:22:36.294Z,17.17
2019-03-29T02:25:07.506Z,17.40
2019-03-29T02:27:36.012Z,17.32
2019-03-29T02:30:08.095Z,16.65
2019-03-29T02:32:36.557Z,18.45
2019-03-29T02:35:05.780Z,17.55
2019-03-29T02:37:34.511Z,20.12
2019-03-29T02:40:03.261Z,18.17
2019-03-29T02:42:31.854Z,18.48
2019-03-29T02:45:00.636Z,17.15
2019-03-29T02:47:29.240Z,24.47
2019-03-29T02:49:57.727Z,19.82
2019-03-29T02:52:26.346Z,21.57
2019-03-29T02:54:54.895Z,19.45
2019-03-29T02:57:23.498Z,19.90
2019-03-29T02:59:51.959Z,19.48
2019-03-29T03:02:26.376Z,17.40
2019-03-29T03:04:56.735Z,15.40
2019-03-29T03:07:29.048Z,18.05
2019-03-29T03:09:59.613Z,16.05
2019-03-29T03:12:36.076Z,17.50
2019-03-29T03:15:06.588Z,22.50
2019-03-29T03:17:35.032Z,10.20
2019-03-29T03:20:14.595Z,20.90
2019-03-29T03:22:41.104Z,19.65
2019-03-29T03:25:10.029Z,17.42
2019-03-29T03:27:38.591Z,20.08
2019-03-29T03:30:12.010Z,19.12
2019-03-29T03:32:40.718Z,19.62
2019-03-29T03:35:10.571Z,19.17
2019-03-29T03:37:39.255Z,17.77
2019-03-29T03:40:09.258Z,17.30
2019-03-29T03:42:37.923Z,18.62
2019-03-29T03:45:10.317Z,18.23
2019-03-29T03:47:39.540Z,19.17
2019-03-29T03:50:10.120Z,16.85
2019-03-29T03:52:38.750Z,17.98
2019-03-29T03:55:07.269Z,19.62
2019-03-29T03:57:37.818Z,17.92
2019-03-29T04:00:08.382Z,17.23
2019-03-29T04:02:36.975Z,12.90
2019-03-29T04:05:06.881Z,19.77
2019-03-29T04:07:35.388Z,18.57
2019-03-29T04:10:05.986Z,18.42
2019-03-29T04:12:34.540Z,20.15
2019-03-29T04:15:03.049Z,17.55
2019-03-29T04:17:31.598Z,19.62
2019-03-29T04:20:00.555Z,17.65
2019-03-29T04:22:29.202Z,18.10
2019-03-29T04:24:57.779Z,17.77
2019-03-29T04:27:26.359Z,16.75
2019-03-29T04:29:54.812Z,18.77
2019-03-29T04:32:23.351Z,17.32
2019-03-29T04:34:51.897Z,20.10
2019-03-29T04:37:20.435Z,21.05
2019-03-29T04:40:05.804Z,21.33
2019-03-29T04:42:19.294Z,18.42
2019-03-29T04:44:47.847Z,24.32
2019-03-29T04:47:16.304Z,23.20
2019-03-29T04:49:44.770Z,23.52
2019-03-29T04:52:13.231Z,19.20
2019-03-29T04:54:41.725Z,22.85
2019-03-29T04:57:10.170Z,25.02
2019-03-29T04:59:38.728Z,21.73
2019-03-29T05:02:07.170Z,22.58
2019-03-29T05:04:36.779Z,26.73
2019-03-29T05:07:07.589Z,22.32
2019-03-29T05:09:36.094Z,22.45
2019-03-29T05:12:04.580Z,23.87
2019-03-29T05:14:33.209Z,25.57
2019-03-29T05:17:01.694Z,24.37
2019-03-29T05:19:30.314Z,22.93
2019-03-29T05:21:58.806Z,22.93
2019-03-29T05:24:27.283Z,23.47
2019-03-29T05:26:56.052Z,27.93
2019-03-29T05:29:24.650Z,23.87
2019-03-29T05:31:53.740Z,27.60
2019-03-29T05:34:22.378Z,21.68
2019-03-29T05:36:50.945Z,24.57
2019-03-29T05:39:19.402Z,28.60
2019-03-29T05:41:48.040Z,22.30
2019-03-29T05:44:16.555Z,22.75
2019-03-29T05:46:45.117Z,25.80
2019-03-29T05:49:13.638Z,21.35
2019-03-29T05:51:42.265Z,24.07
2019-03-29T05:54:10.792Z,22.87
2019-03-29T05:56:39.357Z,24.60
2019-03-29T05:59:07.925Z,23.02
2019-03-29T06:01:36.454Z,27.90
2019-03-29T06:04:05.008Z,22.85
2019-03-29T06:06:33.522Z,21.02
2019-03-29T06:09:02.039Z,18.07
2019-03-29T06:11:30.513Z,27.98
2019-03-29T06:13:58.987Z,24.95
2019-03-29T06:16:38.395Z,22.80
2019-03-29T06:18:57.855Z,26.10
2019-03-29T06:21:26.313Z,27.07
2019-03-29T06:23:54.788Z,25.20
2019-03-29T06:26:23.284Z,26.42
2019-03-29T06:28:51.825Z,23.07
2019-03-29T06:31:20.366Z,24.80
2019-03-29T06:33:48.830Z,22.27
2019-03-29T06:36:17.756Z,23.12
2019-03-29T06:38:48.551Z,20.43
2019-03-29T06:41:17.123Z,23.75
2019-03-29T06:43:45.858Z,23.10
2019-03-29T06:46:14.388Z,22.35
2019-03-29T06:48:42.843Z,23.65
2019-03-29T06:51:11.343Z,23.75
2019-03-29T06:53:39.825Z,22.82
2019-03-29T06:56:08.365Z,22.20
2019-03-29T06:58:36.822Z,20.68
2019-03-29T07:01:05.298Z,22.10
2019-03-29T07:03:33.758Z,21.00
2019-03-29T07:06:02.435Z,22.10
2019-03-29T07:08:30.882Z,21.20
2019-03-29T07:10:59.368Z,23.47
2019-03-29T07:13:27.934Z,19.70
2019-03-29T07:15:56.437Z,21.75
2019-03-29T07:18:25.102Z,23.62
2019-03-29T07:20:53.553Z,20.72
2019-03-29T07:23:22.051Z,22.87
2019-03-29T07:25:50.681Z,20.62
2019-03-29T07:28:19.203Z,23.92
2019-03-29T07:30:47.735Z,23.00
2019-03-29T07:33:16.199Z,21.12
2019-03-29T07:35:44.723Z,23.32
2019-03-29T07:38:13.163Z,20.45
2019-03-29T07:40:41.724Z,24.07
2019-03-29T07:43:10.239Z,25.60
2019-03-29T07:45:38.973Z,21.33
2019-03-29T07:48:07.422Z,19.57
2019-03-29T07:50:35.901Z,18.62
2019-03-29T07:53:04.560Z,21.82
2019-03-29T07:55:33.055Z,21.17
2019-03-29T07:58:01.542Z,22.02
2019-03-29T08:00:30.101Z,17.75
2019-03-29T08:02:58.859Z,19.35
2019-03-29T08:05:27.381Z,19.48
2019-03-29T08:07:55.934Z,19.77
2019-03-29T08:10:29.105Z,18.52
2019-03-29T08:12:54.741Z,19.57
2019-03-29T08:15:23.209Z,18.82
2019-03-29T08:17:51.810Z,18.05
2019-03-29T08:22:50.751Z,18.60
2019-03-29T08:25:19.286Z,19.48
2019-03-29T08:27:47.764Z,18.85
2019-03-29T08:30:16.264Z,17.10
2019-03-29T08:32:44.843Z,19.27
2019-03-29T08:35:13.537Z,17.35
2019-03-29T08:37:42.156Z,17.98
2019-03-29T08:40:10.745Z,16.48
2019-03-29T08:42:39.217Z,16.85
2019-03-29T08:45:08.213Z,16.32
2019-03-29T08:47:36.940Z,18.32
2019-03-29T08:50:07.186Z,17.75
2019-03-29T08:52:35.754Z,18.67
2019-03-29T08:55:05.979Z,17.40
2019-03-29T08:57:34.677Z,15.57
2019-03-29T09:00:03.976Z,18.75
2019-03-29T09:02:32.649Z,15.83
2019-03-29T09:05:01.156Z,17.27
2019-03-29T09:07:43.921Z,17.55
2019-03-29T09:10:01.148Z,16.07
2019-03-29T09:12:29.699Z,16.60
2019-03-29T09:14:58.183Z,12.55
2019-03-29T09:17:26.816Z,16.20
2019-03-29T09:19:55.322Z,17.48
2019-03-29T09:22:23.874Z,15.53
2019-03-29T09:24:52.455Z,15.35
2019-03-29T09:27:20.903Z,12.93
2019-03-29T09:29:49.543Z,14.00
2019-03-29T09:32:18.250Z,13.60
2019-03-29T09:35:05.395Z,13.38
2019-03-29T09:37:33.838Z,19.37
2019-03-29T09:40:02.499Z,12.95
2019-03-29T09:42:31.017Z,14.28
2019-03-29T09:44:59.583Z,14.20
2019-03-29T09:47:28.175Z,15.75
2019-03-29T09:49:56.672Z,13.55
2019-03-29T09:52:25.724Z,14.35
2019-03-29T09:54:54.253Z,14.95
2019-03-29T09:57:36.054Z,11.80
2019-03-29T09:59:53.044Z,12.47
2019-03-29T10:02:21.518Z,13.95
2019-03-29T10:04:49.969Z,14.30
2019-03-29T10:07:21.444Z,11.15
2019-03-29T10:09:49.980Z,11.25
2019-03-29T10:12:18.523Z,10.72
2019-03-29T10:14:47.199Z,12.60
2019-03-29T10:17:15.700Z,9.95
2019-03-29T10:19:44.251Z,10.50
2019-03-29T10:22:12.819Z,9.58
2019-03-29T10:24:41.315Z,10.78
2019-03-29T10:27:09.929Z,11.95
2019-03-29T10:29:38.408Z,10.53
2019-03-29T10:32:09.405Z,11.15
2019-03-29T10:34:37.637Z,10.90
2019-03-29T10:37:06.468Z,10.55
2019-03-29T10:39:35.766Z,9.28
2019-03-29T10:42:04.891Z,11.45
2019-03-29T10:44:33.410Z,10.80
2019-03-29T10:47:02.026Z,13.60
2019-03-29T10:49:30.622Z,8.33
2019-03-29T10:51:59.184Z,9.08
2019-03-29T10:54:27.815Z,8.95
2019-03-29T10:56:57.248Z,11.20
2019-03-29T10:59:27.633Z,10.48
2019-03-29T11:01:56.071Z,8.63
2019-03-29T11:04:24.524Z,10.63
2019-03-29T11:06:53.298Z,9.23
2019-03-29T11:09:21.753Z,10.72
2019-03-29T11:11:50.207Z,10.38
2019-03-29T11:14:18.695Z,9.03
2019-03-29T11:16:47.275Z,9.98
2019-03-29T11:19:15.816Z,9.55
2019-03-29T11:21:44.305Z,8.43
2019-03-29T11:24:13.024Z,8.95
2019-03-29T11:26:41.525Z,6.78
2019-03-29T11:29:10.010Z,7.05
2019-03-29T11:31:38.695Z,7.60
2019-03-29T11:34:07.261Z,8.70
2019-03-29T11:36:35.779Z,10.63
2019-03-29T11:39:06.549Z,10.70
2019-03-29T11:41:35.011Z,11.38
2019-03-29T11:44:03.490Z,9.33
2019-03-29T11:46:32.000Z,12.93
2019-03-29T11:49:00.540Z,8.30
2019-03-29T11:51:29.043Z,12.07
2019-03-29T11:53:57.565Z,9.33
2019-03-29T11:56:26.077Z,10.32
2019-03-29T11:58:54.559Z,9.98
2019-03-29T12:01:23.000Z,10.08
2019-03-29T12:03:51.569Z,9.88
2019-03-29T12:06:20.076Z,11.25
2019-03-29T12:08:48.575Z,13.48
2019-03-29T12:11:17.021Z,10.88
2019-03-29T12:13:45.852Z,8.65
2019-03-29T12:16:14.373Z,9.43
2019-03-29T12:18:42.855Z,9.28
2019-03-29T12:21:11.390Z,10.78
2019-03-29T12:23:39.995Z,12.00
2019-03-29T12:26:08.536Z,11.15
2019-03-29T12:28:37.077Z,10.48
2019-03-29T12:31:05.746Z,9.73
2019-03-29T12:33:34.331Z,15.05
2019-03-29T12:36:02.881Z,10.03
2019-03-29T12:38:31.402Z,9.18
2019-03-29T12:40:59.893Z,12.95
2019-03-29T12:43:28.334Z,12.05
2019-03-29T12:45:56.906Z,13.35
2019-03-29T12:48:25.378Z,11.60
2019-03-29T12:50:53.860Z,9.18
2019-03-29T12:53:22.370Z,11.28
2019-03-29T12:55:50.941Z,11.12
2019-03-29T12:58:19.402Z,11.73
2019-03-29T13:00:47.918Z,12.55
2019-03-29T13:03:16.603Z,11.38
2019-03-29T13:05:45.119Z,10.35
2019-03-29T13:08:13.696Z,11.30
2019-03-29T13:10:42.725Z,10.00
2019-03-29T13:13:11.448Z,11.28
2019-03-29T13:15:39.996Z,11.08
2019-03-29T13:18:08.481Z,9.35
2019-03-29T13:20:37.154Z,9.78
2019-03-29T13:23:06.034Z,9.90
2019-03-29T13:25:34.498Z,9.10
2019-03-29T13:28:03.023Z,8.30
2019-03-29T13:30:31.501Z,8.98
2019-03-29T13:33:00.071Z,10.70
2019-03-29T13:35:28.570Z,10.43
2019-03-29T13:37:57.134Z,9.45
2019-03-29T13:40:25.724Z,8.13
2019-03-29T13:42:54.191Z,8.03
2019-03-29T13:45:22.718Z,8.28
2019-03-29T13:47:51.191Z,11.57
2019-03-29T13:50:19.743Z,8.28
2019-03-29T13:52:48.187Z,8.90
2019-03-29T13:55:16.736Z,9.03
2019-03-29T13:57:45.189Z,9.95
2019-03-29T14:00:13.977Z,9.73
2019-03-29T14:02:42.533Z,7.37
2019-03-29T14:05:11.043Z,7.03
2019-03-29T14:07:39.609Z,7.62
2019-03-29T14:10:09.145Z,8.03
2019-03-29T14:12:39.033Z,9.33
2019-03-29T14:15:10.599Z,8.30
2019-03-29T14:17:39.080Z,8.15
2019-03-29T14:20:08.457Z,7.90
2019-03-29T14:22:37.014Z,10.35
2019-03-29T14:25:07.103Z,7.85
2019-03-29T14:27:35.727Z,8.30
2019-03-29T14:30:06.606Z,9.80
2019-03-29T14:32:37.880Z,7.95
2019-03-29T14:35:07.938Z,8.68
2019-03-29T14:37:36.461Z,6.75
2019-03-29T14:40:07.664Z,7.85
2019-03-29T14:42:36.344Z,9.18
2019-03-29T14:45:07.334Z,8.05
2019-03-29T14:50:07.608Z,9.50
2019-03-29T14:52:36.205Z,8.48
2019-03-29T14:55:05.719Z,6.37
2019-03-29T14:57:34.230Z,7.53
2019-03-29T15:00:03.130Z,7.72
2019-03-29T15:02:31.771Z,8.83
2019-03-29T15:05:02.174Z,7.70
2019-03-29T15:07:30.707Z,8.58
2019-03-29T15:09:59.526Z,8.68
2019-03-29T15:12:28.057Z,8.40
2019-03-29T15:15:05.970Z,9.05
2019-03-29T15:17:26.915Z,7.90
2019-03-29T15:19:55.391Z,7.30
2019-03-29T15:22:23.949Z,7.67
2019-03-29T15:24:52.613Z,5.92
2019-03-29T15:27:22.182Z,8.35
2019-03-29T15:29:50.728Z,5.62
2019-03-29T15:32:19.339Z,6.42
2019-03-29T15:34:47.835Z,8.20
2019-03-29T15:37:16.464Z,9.25
2019-03-29T15:39:45.085Z,6.12
2019-03-29T15:42:13.633Z,5.85
2019-03-29T15:44:42.134Z,7.80
2019-03-29T15:47:10.791Z,7.10
2019-03-29T15:49:39.344Z,6.35
2019-03-29T15:52:08.019Z,6.55
2019-03-29T15:54:36.519Z,5.85
2019-03-29T15:57:05.066Z,8.68
2019-03-29T15:59:33.692Z,6.90
2019-03-29T16:02:02.186Z,7.60
2019-03-29T16:04:30.725Z,8.35
2019-03-29T16:07:00.938Z,8.38
2019-03-29T16:09:29.544Z,6.60
2019-03-29T16:11:58.145Z,13.55
2019-03-29T16:14:26.719Z,6.37
2019-03-29T16:16:55.351Z,9.75
2019-03-29T16:19:23.850Z,5.35
2019-03-29T16:21:52.385Z,5.03
2019-03-29T16:24:20.959Z,6.60
2019-03-29T16:26:49.543Z,6.08
2019-03-29T16:29:18.035Z,6.90
2019-03-29T16:31:46.546Z,7.60
2019-03-29T16:34:15.236Z,8.10
2019-03-29T16:36:43.693Z,7.05
2019-03-29T16:39:13.811Z,4.53
2019-03-29T16:41:42.278Z,8.03
2019-03-29T16:44:10.912Z,6.00
2019-03-29T16:46:39.427Z,7.03
2019-03-29T16:49:08.081Z,5.45
2019-03-29T16:51:36.999Z,5.15
2019-03-29T16:54:05.949Z,6.12
2019-03-29T16:56:34.584Z,12.37
2019-03-29T16:59:03.433Z,5.53
2019-03-29T17:01:31.993Z,6.03
2019-03-29T17:04:00.468Z,7.28
2019-03-29T17:06:28.999Z,4.53
2019-03-29T17:08:57.571Z,5.33
2019-03-29T17:11:26.148Z,5.42
2019-03-29T17:13:54.691Z,8.48
2019-03-29T17:16:30.161Z,9.95
2019-03-29T17:18:53.441Z,8.20
2019-03-29T17:21:21.931Z,10.80
2019-03-29T17:23:52.661Z,5.42
2019-03-29T17:26:20.655Z,7.67
2019-03-29T17:28:49.421Z,18.27
2019-03-29T17:31:18.496Z,9.18
2019-03-29T17:33:47.118Z,8.80
2019-03-29T17:36:15.681Z,6.90
2019-03-29T17:38:44.335Z,5.97
2019-03-29T17:41:12.872Z,6.95
2019-03-29T17:43:41.739Z,7.28
2019-03-29T17:46:16.709Z,7.80
2019-03-29T17:48:40.737Z,8.03
2019-03-29T17:51:09.336Z,6.50
2019-03-29T17:53:37.987Z,6.10
2019-03-29T17:56:06.470Z,8.30
2019-03-29T17:58:34.956Z,6.45
2019-03-29T18:01:03.495Z,6.65
2019-03-29T18:03:31.954Z,8.05
2019-03-29T18:06:00.442Z,7.75
2019-03-29T18:08:29.037Z,6.28
2019-03-29T18:10:57.569Z,9.33
2019-03-29T18:13:26.026Z,6.97
2019-03-29T18:15:54.550Z,8.05
2019-03-29T18:18:22.997Z,6.60
2019-03-29T18:20:51.803Z,7.53
2019-03-29T18:23:20.242Z,6.35
2019-03-29T18:25:48.789Z,12.75
2019-03-29T18:28:17.434Z,10.75
2019-03-29T18:30:46.243Z,7.15
2019-03-29T18:33:14.793Z,9.33
2019-03-29T18:35:43.368Z,8.03
2019-03-29T18:38:12.979Z,8.98
2019-03-29T18:40:41.611Z,7.78
2019-03-29T18:43:10.192Z,7.70
2019-03-29T18:45:41.471Z,9.43
2019-03-29T18:48:08.910Z,9.50
2019-03-29T18:50:37.480Z,8.75
2019-03-29T18:53:05.968Z,8.95
2019-03-29T18:55:34.579Z,8.23
2019-03-29T18:58:05.774Z,7.70
2019-03-29T19:00:34.447Z,7.40
2019-03-29T19:03:03.150Z,10.23
2019-03-29T19:05:32.220Z,10.40
2019-03-29T19:08:00.823Z,8.63
2019-03-29T19:10:29.430Z,9.23
2019-03-29T19:12:58.132Z,10.72
2019-03-29T19:15:26.774Z,12.07
2019-03-29T19:17:55.495Z,8.50
2019-03-29T19:20:27.845Z,7.58
2019-03-29T19:22:54.554Z,8.85
2019-03-29T19:25:23.074Z,11.30
2019-03-29T19:27:51.543Z,13.80
2019-03-29T19:30:20.584Z,8.70
2019-03-29T19:32:49.164Z,10.68
2019-03-29T19:35:17.635Z,9.78
2019-03-29T19:37:46.389Z,10.78
2019-03-29T19:40:15.075Z,12.03
2019-03-29T19:42:43.716Z,12.93
2019-03-29T19:45:12.518Z,9.28
2019-03-29T19:47:41.057Z,9.70
2019-03-29T19:50:10.079Z,13.03
2019-03-29T19:52:38.615Z,8.90
2019-03-29T19:55:07.265Z,10.30
2019-03-29T19:57:35.834Z,9.30
2019-03-29T20:00:07.847Z,15.25
2019-03-29T20:02:36.668Z,10.35
2019-03-29T20:05:08.283Z,12.10
2019-03-29T20:07:36.814Z,9.20
2019-03-29T20:10:07.551Z,12.60
2019-03-29T20:12:36.159Z,10.58
2019-03-29T20:15:06.703Z,12.07
2019-03-29T20:17:35.433Z,9.90
2019-03-29T20:20:05.853Z,13.15
2019-03-29T20:22:34.515Z,12.33
2019-03-29T20:25:03.122Z,11.12
2019-03-29T20:27:31.582Z,10.10
2019-03-29T20:30:00.315Z,10.13
2019-03-29T20:32:28.934Z,11.15
2019-03-29T20:34:57.379Z,9.33
2019-03-29T20:37:25.939Z,13.90
2019-03-29T20:39:54.487Z,11.25
2019-03-29T20:42:24.911Z,16.97
2019-03-29T20:44:53.401Z,12.03
2019-03-29T20:47:22.031Z,10.25
2019-03-29T20:49:50.573Z,12.60
2019-03-29T20:52:19.060Z,14.23
2019-03-29T20:54:47.546Z,14.58
2019-03-29T20:57:16.159Z,17.05
2019-03-29T20:59:44.695Z,14.58
2019-03-29T21:02:13.258Z,10.93
2019-03-29T21:04:41.703Z,13.03
2019-03-29T21:07:10.274Z,10.80
2019-03-29T21:09:38.799Z,15.88
2019-03-29T21:12:07.395Z,16.02
2019-03-29T21:14:35.969Z,16.87
2019-03-29T21:17:04.596Z,14.03
2019-03-29T21:19:33.147Z,11.60
2019-03-29T21:22:01.614Z,17.05
2019-03-29T21:24:30.138Z,13.98
2019-03-29T21:26:58.622Z,15.55
2019-03-29T21:29:27.299Z,14.75
2019-03-29T21:31:55.844Z,12.23
2019-03-29T21:34:24.405Z,16.85
2019-03-29T21:36:52.975Z,16.90
2019-03-29T21:39:21.759Z,18.00
2019-03-29T21:41:50.484Z,16.07
2019-03-29T21:44:19.142Z,14.90
2019-03-29T21:46:47.809Z,14.75
2019-03-29T21:49:16.561Z,16.12
2019-03-29T21:51:45.122Z,15.58
2019-03-29T21:54:13.702Z,17.92
2019-03-29T21:56:42.503Z,18.77
2019-03-29T21:59:11.046Z,13.45
2019-03-29T22:01:39.512Z,16.97
2019-03-29T22:04:08.175Z,16.97
2019-03-29T22:06:36.718Z,16.27
2019-03-29T22:09:07.498Z,17.17
2019-03-29T22:11:36.019Z,19.37
2019-03-29T22:14:04.674Z,17.23
2019-03-29T22:16:33.323Z,14.93
2019-03-29T22:19:01.887Z,14.33
2019-03-29T22:21:30.383Z,15.75
2019-03-29T22:23:58.847Z,17.90
2019-03-29T22:26:27.358Z,18.00
2019-03-29T22:28:56.052Z,15.08
2019-03-29T22:31:24.559Z,15.10
2019-03-29T22:33:53.008Z,15.80
2019-03-29T22:36:21.566Z,19.42
2019-03-29T22:38:50.169Z,14.38
2019-03-29T22:41:18.704Z,14.23
2019-03-29T22:43:47.436Z,14.00
2019-03-29T22:46:16.006Z,11.12
2019-03-29T22:48:52.175Z,13.50
2019-03-29T22:51:15.045Z,14.27
2019-03-29T22:53:43.490Z,13.15
2019-03-29T22:56:12.113Z,11.80
2019-03-29T22:58:40.803Z,10.18
2019-03-29T23:01:09.387Z,10.55
2019-03-29T23:03:37.938Z,15.35
2019-03-29T23:06:06.489Z,10.68
2019-03-29T23:08:34.945Z,9.53
2019-03-29T23:11:03.799Z,8.50
2019-03-29T23:13:34.300Z,11.90
2019-03-29T23:16:02.738Z,10.83
2019-03-29T23:18:31.204Z,11.83
2019-03-29T23:20:59.761Z,12.33
2019-03-29T23:23:28.200Z,12.53
2019-03-29T23:25:56.663Z,13.45
2019-03-29T23:28:26.261Z,15.25
2019-03-29T23:30:54.849Z,14.38
2019-03-29T23:33:23.715Z,9.58
2019-03-29T23:35:52.213Z,13.32
2019-03-29T23:38:20.822Z,13.30
2019-03-29T23:40:49.263Z,14.80
2019-03-29T23:43:17.822Z,9.93
2019-03-29T23:45:46.292Z,15.32
2019-03-29T23:48:14.821Z,10.23
2019-03-29T23:50:43.252Z,8.73
2019-03-29T23:53:11.869Z,9.85
2019-03-29T23:55:40.353Z,9.25
2019-03-29T23:58:08.834Z,12.33
